Cashiers, NC

7:21 AM EDT on September 22, 2014 (GMT -0400)
Wild Ridge | Change Station
CLOSE
Current Station
Personal Weather Station
Location: Cashiers, NC
Elevation: 4160 ft
Nearby Weather Stations

Elev 4160 ft 35.13 °N, 83.11 °W | Updated 1 second ago

Partly Cloudy
Partly Cloudy
47.7 °F
Feels Like 48 °F
N
1.0
Wind Variable Wind from NW
Gusts 4.0 mph

Today
High -- | Low -- °F
--% Chance of Precip.
Yesterday
High -- | Low -- °F
Precip. -- in
7:20 AM 7:29 PM
Waning Crescent, 3% visible
Pressure 30.10 in
Visibility 1.2 miles
Clouds
Windchill 48 °F
Dew Point 47 °F
Humidity 99%
Rainfall 0.00 in
Snow Depth Not available.
UV 0.0 out of 12
Pollen 6.50 out of 12
Ozone Good
PM2.5 Good
Flu Activity Not available.
METAR K1A5 221115Z AUTO 00000KT 1 1/4SM BR 10/10 A3010 RMK AO2 VIS 1/2V4 T00980098

More Conditions Fewer Conditions

Pressure 30.10 in
Visibility 1.2 miles
Clouds
Windchill 48 °F
Dew Point 47 °F
Humidity 99%
Rainfall 0.00 in
Snow Depth Not available.
UV 0.0 out of 12
Pollen 6.50 out of 12
Ozone Good
PM2.5 Good
Flu Activity Not available.
METAR K1A5 221115Z AUTO 00000KT 1 1/4SM BR 10/10 A3010 RMK AO2 VIS 1/2V4 T00980098

More Conditions Fewer Conditions

10-Day Weather Forecast

Almanac

Astronomy

Sep. 22, 2014 Rise Set
Actual Time 7:20 AM EDT 7:29 PM EDT
Civil Twilight 6:55 AM EDT 7:54 PM EDT
Nautical Twilight 6:25 AM EDT 8:23 PM EDT
Astronomical Twilight 5:55 AM EDT 8:53 PM EDT
Moon 5:50 AM EDT 6:34 PM EDT
Length of Visible Light 12h 59m
Length of Day
12h 08m
Tomorrow will be 2m 10s shorter.
Waning Crescent, 3% of the Moon is Illuminated
Today
Waning Crescent
Sep 24
New
Oct 1
First Quarter
Oct 8
Full
Oct 15
Last Quarter

Today's Extremes

State Highs State Lows

Community

WunderPhotos

Upload Photos

1,755,409 photos uploaded!

Nearby

Air Quality

  Air Quality AQ Index Pollutant
Yesterday Good
PM2.5
Yesterday Good
OZONE
Current Good
OZONE
Current Good
PM2.5
Monday Good
PM2.5
Monday Good
OZONE
Tuesday Good
PM2.5
Tuesday Good
OZONE
Wednesday Good
PM2.5
Wednesday Good
OZONE

Snow Depth

Station Depth Elevation
No new snow has been reported.

Earthquake Activity

City Distance Mag. Time & Date
Sweetwater, Tennessee 84 miles 2.5 3:54 PM EDT
2014-09-20
New Ellenton, South Carolina 137 miles 2.6 4:38 PM EDT
2014-09-19
Minimum magnitude displayed is 2.5.

Coastal Water Temperatures

Place Temperature
No Stations Reporting

Nearby Weather Stations